sensor_id;sensor_type;location;lat;lon;timestamp;pressure;altitude;pressure_sealevel;temperature;humidity
30339;BME280;795;49.296;11.348;2023-05-17T00:01:00;96596.59;;;5.89;100.00
30339;BME280;795;49.296;11.348;2023-05-17T00:03:27;96564.56;;;5.70;100.00
30339;BME280;795;49.296;11.348;2023-05-17T00:05:54;96572.94;;;5.65;100.00
30339;BME280;795;49.296;11.348;2023-05-17T00:08:21;96492.06;;;5.17;100.00
30339;BME280;795;49.296;11.348;2023-05-17T00:10:48;96519.88;;;5.43;100.00
30339;BME280;795;49.296;11.348;2023-05-17T00:13:15;96512.19;;;5.40;100.00
30339;BME280;795;49.296;11.348;2023-05-17T00:15:42;96479.53;;;5.38;100.00
30339;BME280;795;49.296;11.348;2023-05-17T00:18:09;96471.09;;;5.33;100.00
30339;BME280;795;49.296;11.348;2023-05-17T00:20:36;96595.28;;;6.14;100.00
30339;BME280;795;49.296;11.348;2023-05-17T00:23:03;96577.44;;;5.95;100.00
30339;BME280;795;49.296;11.348;2023-05-17T00:25:30;96603.16;;;6.15;100.00
30339;BME280;795;49.296;11.348;2023-05-17T00:27:57;96543.72;;;5.84;100.00
30339;BME280;795;49.296;11.348;2023-05-17T00:30:25;96541.16;;;5.73;100.00
30339;BME280;795;49.296;11.348;2023-05-17T00:32:52;96501.38;;;5.32;100.00
30339;BME280;795;49.296;11.348;2023-05-17T00:35:19;96569.19;;;5.77;100.00
30339;BME280;795;49.296;11.348;2023-05-17T00:37:47;96622.28;;;5.90;100.00
30339;BME280;795;49.296;11.348;2023-05-17T00:40:14;96598.47;;;5.68;100.00
30339;BME280;795;49.296;11.348;2023-05-17T00:42:42;96574.84;;;5.44;100.00
30339;BME280;795;49.296;11.348;2023-05-17T00:45:09;96599.94;;;5.51;100.00
30339;BME280;795;49.296;11.348;2023-05-17T00:47:36;96596.66;;;5.38;100.00
30339;BME280;795;49.296;11.348;2023-05-17T00:50:05;96611.31;;;5.53;100.00
30339;BME280;795;49.296;11.348;2023-05-17T00:52:34;96567.97;;;5.21;100.00
30339;BME280;795;49.296;11.348;2023-05-17T00:55:02;96616.84;;;5.41;100.00
30339;BME280;795;49.296;11.348;2023-05-17T00:57:29;96607.25;;;5.28;100.00
30339;BME280;795;49.296;11.348;2023-05-17T00:59:58;96622.00;;;5.32;100.00
30339;BME280;795;49.296;11.348;2023-05-17T01:02:25;96573.50;;;4.99;100.00
30339;BME280;795;49.296;11.348;2023-05-17T01:04:52;96562.97;;;4.97;100.00
30339;BME280;795;49.296;11.348;2023-05-17T01:07:19;96584.75;;;5.12;100.00
30339;BME280;795;49.296;11.348;2023-05-17T01:09:47;96540.53;;;4.69;100.00
30339;BME280;795;49.296;11.348;2023-05-17T01:12:49;96620.19;;;5.12;100.00
30339;BME280;795;49.296;11.348;2023-05-17T01:15:32;96611.34;;;5.12;100.00
30339;BME280;795;49.296;11.348;2023-05-17T01:18:22;96607.28;;;4.87;100.00
30339;BME280;795;49.296;11.348;2023-05-17T01:20:59;96623.56;;;4.94;100.00
30339;BME280;795;49.296;11.348;2023-05-17T01:23:54;96586.13;;;4.65;100.00
30339;BME280;795;49.296;11.348;2023-05-17T01:26:45;96574.56;;;4.55;100.00
30339;BME280;795;49.296;11.348;2023-05-17T01:29:15;96598.16;;;4.48;100.00
30339;BME280;795;49.296;11.348;2023-05-17T01:31:45;96599.22;;;4.25;100.00
30339;BME280;795;49.296;11.348;2023-05-17T01:34:27;96570.03;;;4.14;100.00
30339;BME280;795;49.296;11.348;2023-05-17T01:36:55;96636.44;;;4.57;100.00
30339;BME280;795;49.296;11.348;2023-05-17T01:39:23;96621.19;;;4.27;100.00
30339;BME280;795;49.296;11.348;2023-05-17T01:42:07;96643.84;;;4.42;100.00
30339;BME280;795;49.296;11.348;2023-05-17T01:45:07;96570.91;;;3.92;100.00
30339;BME280;795;49.296;11.348;2023-05-17T01:50:43;96625.22;;;4.11;100.00
30339;BME280;795;49.296;11.348;2023-05-17T01:53:38;96606.66;;;3.88;100.00
30339;BME280;795;49.296;11.348;2023-05-17T01:56:21;96613.31;;;3.83;100.00
30339;BME280;795;49.296;11.348;2023-05-17T01:58:53;96607.28;;;3.81;100.00
30339;BME280;795;49.296;11.348;2023-05-17T02:01:25;96656.59;;;4.17;100.00
30339;BME280;795;49.296;11.348;2023-05-17T02:03:54;96598.97;;;3.74;100.00
30339;BME280;795;49.296;11.348;2023-05-17T02:06:21;96662.56;;;4.09;100.00
30339;BME280;795;49.296;11.348;2023-05-17T02:08:48;96641.81;;;3.92;100.00
30339;BME280;795;49.296;11.348;2023-05-17T02:11:15;96598.34;;;3.71;100.00
30339;BME280;795;49.296;11.348;2023-05-17T02:13:42;96615.47;;;3.78;100.00
30339;BME280;795;49.296;11.348;2023-05-17T02:16:09;96669.19;;;4.03;100.00
30339;BME280;795;49.296;11.348;2023-05-17T02:18:36;96625.16;;;3.79;100.00
30339;BME280;795;49.296;11.348;2023-05-17T02:21:06;96643.75;;;3.79;100.00
30339;BME280;795;49.296;11.348;2023-05-17T02:23:33;96666.28;;;3.95;100.00
30339;BME280;795;49.296;11.348;2023-05-17T02:26:00;96592.09;;;3.50;100.00
30339;BME280;795;49.296;11.348;2023-05-17T02:28:27;96636.50;;;3.81;100.00
30339;BME280;795;49.296;11.348;2023-05-17T02:30:54;96674.16;;;3.86;100.00
30339;BME280;795;49.296;11.348;2023-05-17T02:33:22;96641.44;;;3.74;100.00
30339;BME280;795;49.296;11.348;2023-05-17T02:35:49;96637.47;;;3.58;100.00
30339;BME280;795;49.296;11.348;2023-05-17T02:38:16;96615.28;;;3.37;100.00
30339;BME280;795;49.296;11.348;2023-05-17T02:40:43;96647.50;;;3.43;100.00
30339;BME280;795;49.296;11.348;2023-05-17T02:43:10;96670.78;;;3.51;100.00
30339;BME280;795;49.296;11.348;2023-05-17T02:45:37;96619.72;;;3.14;100.00
30339;BME280;795;49.296;11.348;2023-05-17T02:48:04;96589.31;;;2.96;100.00
30339;BME280;795;49.296;11.348;2023-05-17T02:50:32;96646.16;;;3.38;100.00
30339;BME280;795;49.296;11.348;2023-05-17T02:52:59;96678.03;;;3.49;100.00
30339;BME280;795;49.296;11.348;2023-05-17T02:55:26;96655.06;;;3.25;100.00
30339;BME280;795;49.296;11.348;2023-05-17T02:57:54;96677.41;;;3.45;100.00
30339;BME280;795;49.296;11.348;2023-05-17T03:00:21;96652.44;;;3.48;100.00
30339;BME280;795;49.296;11.348;2023-05-17T03:02:48;96623.34;;;3.35;100.00
30339;BME280;795;49.296;11.348;2023-05-17T03:05:15;96673.66;;;3.59;100.00
30339;BME280;795;49.296;11.348;2023-05-17T03:07:42;96588.00;;;3.01;100.00
30339;BME280;795;49.296;11.348;2023-05-17T03:10:09;96654.09;;;3.38;100.00
30339;BME280;795;49.296;11.348;2023-05-17T03:12:36;96685.50;;;3.44;100.00
30339;BME280;795;49.296;11.348;2023-05-17T03:15:04;96643.81;;;3.11;100.00
30339;BME280;795;49.296;11.348;2023-05-17T03:17:31;96663.25;;;3.11;100.00
30339;BME280;795;49.296;11.348;2023-05-17T03:19:58;96699.56;;;3.22;100.00
30339;BME280;795;49.296;11.348;2023-05-17T03:22:25;96683.97;;;3.06;100.00
30339;BME280;795;49.296;11.348;2023-05-17T03:24:52;96623.84;;;2.72;100.00
30339;BME280;795;49.296;11.348;2023-05-17T03:27:19;96648.47;;;2.85;100.00
30339;BME280;795;49.296;11.348;2023-05-17T03:29:46;96680.44;;;2.95;100.00
30339;BME280;795;49.296;11.348;2023-05-17T03:32:13;96679.88;;;2.79;100.00
30339;BME280;795;49.296;11.348;2023-05-17T03:34:40;96617.88;;;2.46;100.00
30339;BME280;795;49.296;11.348;2023-05-17T03:37:07;96685.09;;;2.80;100.00
30339;BME280;795;49.296;11.348;2023-05-17T03:39:34;96623.50;;;2.42;100.00
30339;BME280;795;49.296;11.348;2023-05-17T03:42:01;96694.13;;;2.78;100.00
30339;BME280;795;49.296;11.348;2023-05-17T03:44:29;96677.78;;;2.60;100.00
30339;BME280;795;49.296;11.348;2023-05-17T03:46:56;96661.31;;;2.44;100.00
30339;BME280;795;49.296;11.348;2023-05-17T03:49:23;96723.06;;;2.81;100.00
30339;BME280;795;49.296;11.348;2023-05-17T03:51:50;96633.53;;;2.26;100.00
30339;BME280;795;49.296;11.348;2023-05-17T03:54:17;96701.69;;;2.71;100.00
30339;BME280;795;49.296;11.348;2023-05-17T03:56:44;96703.59;;;2.69;100.00
30339;BME280;795;49.296;11.348;2023-05-17T03:59:15;96672.81;;;2.55;100.00
30339;BME280;795;49.296;11.348;2023-05-17T04:01:43;96681.78;;;2.65;100.00
30339;BME280;795;49.296;11.348;2023-05-17T04:04:11;96699.53;;;2.76;100.00
30339;BME280;795;49.296;11.348;2023-05-17T04:06:39;96751.97;;;3.07;100.00
30339;BME280;795;49.296;11.348;2023-05-17T04:09:07;96737.88;;;3.18;100.00
30339;BME280;795;49.296;11.348;2023-05-17T04:11:36;96677.78;;;2.95;100.00
30339;BME280;795;49.296;11.348;2023-05-17T04:14:04;96674.31;;;3.05;100.00
30339;BME280;795;49.296;11.348;2023-05-17T04:16:31;96691.84;;;3.30;100.00
30339;BME280;795;49.296;11.348;2023-05-17T04:19:02;96742.81;;;3.68;100.00
30339;BME280;795;49.296;11.348;2023-05-17T04:21:29;96713.47;;;3.59;100.00
30339;BME280;795;49.296;11.348;2023-05-17T04:23:56;96712.66;;;3.69;100.00
30339;BME280;795;49.296;11.348;2023-05-17T04:26:25;96715.06;;;3.83;100.00
30339;BME280;795;49.296;11.348;2023-05-17T04:28:52;96749.59;;;4.17;100.00
30339;BME280;795;49.296;11.348;2023-05-17T04:31:19;96758.63;;;4.36;100.00
30339;BME280;795;49.296;11.348;2023-05-17T04:33:46;96774.78;;;4.55;100.00
30339;BME280;795;49.296;11.348;2023-05-17T04:36:13;96683.06;;;4.07;100.00
30339;BME280;795;49.296;11.348;2023-05-17T04:38:40;96757.50;;;4.72;100.00
30339;BME280;795;49.296;11.348;2023-05-17T04:41:07;96760.69;;;4.98;100.00
30339;BME280;795;49.296;11.348;2023-05-17T04:43:35;96751.28;;;4.94;100.00
30339;BME280;795;49.296;11.348;2023-05-17T04:46:02;96774.44;;;5.34;100.00
30339;BME280;795;49.296;11.348;2023-05-17T04:48:31;96777.50;;;5.51;100.00
30339;BME280;795;49.296;11.348;2023-05-17T04:51:05;96752.88;;;5.58;100.00
30339;BME280;795;49.296;11.348;2023-05-17T04:53:32;96733.28;;;5.59;100.00
30339;BME280;795;49.296;11.348;2023-05-17T04:55:59;96764.91;;;5.94;100.00
30339;BME280;795;49.296;11.348;2023-05-17T04:58:26;96741.22;;;5.91;100.00
30339;BME280;795;49.296;11.348;2023-05-17T05:00:53;96766.81;;;6.03;100.00
30339;BME280;795;49.296;11.348;2023-05-17T05:03:22;96791.91;;;6.31;100.00
30339;BME280;795;49.296;11.348;2023-05-17T05:05:49;96778.63;;;6.50;100.00
30339;BME280;795;49.296;11.348;2023-05-17T05:08:16;96769.84;;;6.29;100.00
30339;BME280;795;49.296;11.348;2023-05-17T05:10:43;96727.03;;;6.21;100.00
30339;BME280;795;49.296;11.348;2023-05-17T05:13:11;96720.81;;;6.11;100.00
30339;BME280;795;49.296;11.348;2023-05-17T05:15:38;96760.44;;;6.64;100.00
30339;BME280;795;49.296;11.348;2023-05-17T05:18:04;96785.63;;;6.91;100.00
30339;BME280;795;49.296;11.348;2023-05-17T05:20:32;96758.22;;;6.79;100.00
30339;BME280;795;49.296;11.348;2023-05-17T05:22:59;96710.44;;;6.57;100.00
30339;BME280;795;49.296;11.348;2023-05-17T05:25:27;96745.34;;;7.03;100.00
30339;BME280;795;49.296;11.348;2023-05-17T05:27:54;96716.66;;;7.24;100.00
30339;BME280;795;49.296;11.348;2023-05-17T05:30:21;96804.34;;;8.06;100.00
30339;BME280;795;49.296;11.348;2023-05-17T05:32:50;96805.59;;;8.67;100.00
30339;BME280;795;49.296;11.348;2023-05-17T05:35:17;96819.13;;;8.93;100.00
30339;BME280;795;49.296;11.348;2023-05-17T05:37:44;96820.88;;;9.29;100.00
30339;BME280;795;49.296;11.348;2023-05-17T05:40:12;96809.44;;;9.54;100.00
30339;BME280;795;49.296;11.348;2023-05-17T05:42:39;96813.91;;;10.07;97.31
30339;BME280;795;49.296;11.348;2023-05-17T05:45:08;96815.91;;;9.87;93.18
30339;BME280;795;49.296;11.348;2023-05-17T05:47:36;96770.91;;;9.55;92.23
30339;BME280;795;49.296;11.348;2023-05-17T05:50:05;96805.69;;;10.26;92.35
30339;BME280;795;49.296;11.348;2023-05-17T05:52:32;96806.78;;;10.66;87.68
30339;BME280;795;49.296;11.348;2023-05-17T05:54:59;96803.16;;;10.84;85.89
30339;BME280;795;49.296;11.348;2023-05-17T05:57:26;96808.19;;;10.79;83.03
30339;BME280;795;49.296;11.348;2023-05-17T05:59:53;96799.75;;;10.74;85.26
30339;BME280;795;49.296;11.348;2023-05-17T06:02:20;96821.34;;;10.98;82.58
30339;BME280;795;49.296;11.348;2023-05-17T06:04:47;96810.72;;;10.80;82.20
30339;BME280;795;49.296;11.348;2023-05-17T06:07:14;96801.00;;;10.28;83.15
30339;BME280;795;49.296;11.348;2023-05-17T06:09:42;96829.13;;;10.41;84.89
30339;BME280;795;49.296;11.348;2023-05-17T06:12:09;96801.22;;;10.34;85.97
30339;BME280;795;49.296;11.348;2023-05-17T06:14:36;96773.88;;;9.87;86.62
30339;BME280;795;49.296;11.348;2023-05-17T06:17:06;96823.63;;;10.08;89.09
30339;BME280;795;49.296;11.348;2023-05-17T06:19:33;96826.78;;;10.21;86.64
30339;BME280;795;49.296;11.348;2023-05-17T06:22:00;96840.38;;;10.19;87.16
30339;BME280;795;49.296;11.348;2023-05-17T06:24:27;96823.31;;;10.11;88.15
30339;BME280;795;49.296;11.348;2023-05-17T06:26:54;96840.38;;;10.19;87.99
30339;BME280;795;49.296;11.348;2023-05-17T06:29:21;96787.81;;;9.73;90.17
30339;BME280;795;49.296;11.348;2023-05-17T06:31:48;96817.16;;;9.92;90.75
30339;BME280;795;49.296;11.348;2023-05-17T06:34:14;96848.13;;;10.48;87.90
30339;BME280;795;49.296;11.348;2023-05-17T06:36:41;96814.31;;;10.12;85.47
30339;BME280;795;49.296;11.348;2023-05-17T06:39:08;96801.75;;;9.77;86.18
30339;BME280;795;49.296;11.348;2023-05-17T06:41:35;96839.66;;;9.64;87.87
30339;BME280;795;49.296;11.348;2023-05-17T06:44:02;96801.75;;;9.59;88.61
30339;BME280;795;49.296;11.348;2023-05-17T06:46:29;96825.09;;;10.20;87.64
30339;BME280;795;49.296;11.348;2023-05-17T06:48:56;96800.16;;;10.53;85.18
30339;BME280;795;49.296;11.348;2023-05-17T06:51:24;96798.78;;;11.16;80.61
30339;BME280;795;49.296;11.348;2023-05-17T06:53:51;96796.22;;;11.73;76.34
30339;BME280;795;49.296;11.348;2023-05-17T06:56:18;96830.13;;;11.50;76.26
30339;BME280;795;49.296;11.348;2023-05-17T06:58:45;96820.19;;;11.42;75.38
30339;BME280;795;49.296;11.348;2023-05-17T07:01:12;96851.06;;;11.88;75.66
30339;BME280;795;49.296;11.348;2023-05-17T07:03:45;96841.94;;;11.65;76.33
30339;BME280;795;49.296;11.348;2023-05-17T07:06:12;96855.41;;;11.73;75.47
30339;BME280;795;49.296;11.348;2023-05-17T07:08:39;96793.31;;;11.58;72.38
30339;BME280;795;49.296;11.348;2023-05-17T07:11:06;96783.13;;;11.04;73.68
30339;BME280;795;49.296;11.348;2023-05-17T07:13:33;96835.78;;;11.39;73.83
30339;BME280;795;49.296;11.348;2023-05-17T07:16:00;96827.38;;;11.33;75.20
30339;BME280;795;49.296;11.348;2023-05-17T07:18:27;96823.97;;;10.82;76.11
30339;BME280;795;49.296;11.348;2023-05-17T07:20:54;96856.09;;;10.91;79.08
30339;BME280;795;49.296;11.348;2023-05-17T07:23:21;96825.31;;;11.11;77.59
30339;BME280;795;49.296;11.348;2023-05-17T07:25:49;96871.19;;;11.68;75.88
30339;BME280;795;49.296;11.348;2023-05-17T07:28:16;96803.63;;;12.27;71.63
30339;BME280;795;49.296;11.348;2023-05-17T07:30:43;96797.56;;;12.49;67.05
30339;BME280;795;49.296;11.348;2023-05-17T07:33:10;96809.97;;;12.58;66.47
30339;BME280;795;49.296;11.348;2023-05-17T07:35:37;96829.19;;;12.23;68.37
30339;BME280;795;49.296;11.348;2023-05-17T07:38:04;96826.84;;;12.36;69.25
30339;BME280;795;49.296;11.348;2023-05-17T07:40:31;96827.00;;;12.43;66.64
30339;BME280;795;49.296;11.348;2023-05-17T07:42:58;96849.00;;;12.79;67.36
30339;BME280;795;49.296;11.348;2023-05-17T07:45:25;96808.34;;;12.17;66.16
30339;BME280;795;49.296;11.348;2023-05-17T07:47:52;96890.78;;;11.94;68.60
30339;BME280;795;49.296;11.348;2023-05-17T07:50:19;96845.69;;;11.88;70.93
30339;BME280;795;49.296;11.348;2023-05-17T07:52:46;96845.66;;;11.72;71.46
30339;BME280;795;49.296;11.348;2023-05-17T07:55:14;96820.56;;;11.63;71.65
30339;BME280;795;49.296;11.348;2023-05-17T07:57:44;96887.75;;;11.47;70.82
30339;BME280;795;49.296;11.348;2023-05-17T08:14:03;96877.13;;;12.76;66.33
30339;BME280;795;49.296;11.348;2023-05-17T08:16:32;96893.31;;;12.60;65.25
30339;BME280;795;49.296;11.348;2023-05-17T08:18:59;96891.31;;;12.30;65.32
30339;BME280;795;49.296;11.348;2023-05-17T08:21:26;96862.69;;;11.47;68.36
30339;BME280;795;49.296;11.348;2023-05-17T08:23:53;96870.88;;;11.79;68.30
30339;BME280;795;49.296;11.348;2023-05-17T08:26:20;96868.06;;;12.69;64.49
30339;BME280;795;49.296;11.348;2023-05-17T08:28:47;96834.19;;;12.75;60.90
30339;BME280;795;49.296;11.348;2023-05-17T08:31:14;96903.41;;;12.18;63.14
30339;BME280;795;49.296;11.348;2023-05-17T08:33:40;96887.78;;;12.37;62.28
30339;BME280;795;49.296;11.348;2023-05-17T08:36:08;96898.50;;;12.86;61.09
30339;BME280;795;49.296;11.348;2023-05-17T08:38:35;96896.16;;;12.75;61.02
30339;BME280;795;49.296;11.348;2023-05-17T08:41:03;96899.34;;;12.78;61.86
30339;BME280;795;49.296;11.348;2023-05-17T08:43:30;96901.00;;;13.11;62.52
30339;BME280;795;49.296;11.348;2023-05-17T08:45:58;96892.91;;;13.58;61.64
30339;BME280;795;49.296;11.348;2023-05-17T08:48:26;96859.44;;;13.75;59.59
30339;BME280;795;49.296;11.348;2023-05-17T08:50:55;96874.28;;;14.47;56.96
30339;BME280;795;49.296;11.348;2023-05-17T08:53:24;96913.66;;;14.65;55.27
30339;BME280;795;49.296;11.348;2023-05-17T08:56:00;96912.91;;;13.25;57.93
30339;BME280;795;49.296;11.348;2023-05-17T08:58:34;96916.63;;;13.24;59.84
30339;BME280;795;49.296;11.348;2023-05-17T09:01:22;96887.41;;;13.44;59.40
30339;BME280;795;49.296;11.348;2023-05-17T09:03:52;96906.19;;;13.68;59.04
30339;BME280;795;49.296;11.348;2023-05-17T09:06:22;96882.38;;;13.71;58.57
30339;BME280;795;49.296;11.348;2023-05-17T09:08:51;96886.31;;;13.91;57.11
30339;BME280;795;49.296;11.348;2023-05-17T09:11:27;96887.53;;;14.12;56.11
30339;BME280;795;49.296;11.348;2023-05-17T09:14:01;96897.44;;;13.19;58.84
30339;BME280;795;49.296;11.348;2023-05-17T09:16:30;96928.16;;;12.61;61.87
30339;BME280;795;49.296;11.348;2023-05-17T09:19:00;96909.72;;;13.21;60.51
30339;BME280;795;49.296;11.348;2023-05-17T09:21:29;96910.50;;;14.08;58.24
30339;BME280;795;49.296;11.348;2023-05-17T09:24:00;96899.69;;;14.08;57.64
30339;BME280;795;49.296;11.348;2023-05-17T09:26:44;96933.53;;;14.49;55.50
30339;BME280;795;49.296;11.348;2023-05-17T09:29:16;96922.97;;;15.14;54.79
30339;BME280;795;49.296;11.348;2023-05-17T09:31:43;96910.22;;;15.22;53.62
30339;BME280;795;49.296;11.348;2023-05-17T09:34:11;96911.28;;;16.01;49.93
30339;BME280;795;49.296;11.348;2023-05-17T09:36:42;96889.47;;;16.03;48.00
30339;BME280;795;49.296;11.348;2023-05-17T09:39:10;96928.88;;;16.83;46.84
30339;BME280;795;49.296;11.348;2023-05-17T09:41:46;96938.97;;;17.17;46.88
30339;BME280;795;49.296;11.348;2023-05-17T09:44:15;96932.59;;;17.31;46.17
30339;BME280;795;49.296;11.348;2023-05-17T09:46:47;96944.13;;;18.02;44.37
30339;BME280;795;49.296;11.348;2023-05-17T09:49:16;96948.78;;;18.21;43.65
30339;BME280;795;49.296;11.348;2023-05-17T09:51:47;96954.53;;;17.57;43.80
30339;BME280;795;49.296;11.348;2023-05-17T09:54:15;96943.00;;;17.00;45.64
30339;BME280;795;49.296;11.348;2023-05-17T09:56:44;96957.19;;;15.88;45.41
30339;BME280;795;49.296;11.348;2023-05-17T09:59:15;96946.66;;;15.49;47.58
30339;BME280;795;49.296;11.348;2023-05-17T10:01:44;96960.38;;;15.10;49.27
30339;BME280;795;49.296;11.348;2023-05-17T10:04:12;96931.03;;;13.55;53.01
30339;BME280;795;49.296;11.348;2023-05-17T10:06:41;96927.47;;;12.68;56.18
30339;BME280;795;49.296;11.348;2023-05-17T10:09:21;96970.75;;;12.90;57.88
30339;BME280;795;49.296;11.348;2023-05-17T10:11:53;96953.34;;;13.25;57.08
30339;BME280;795;49.296;11.348;2023-05-17T10:14:33;96965.16;;;13.32;57.67
30339;BME280;795;49.296;11.348;2023-05-17T10:17:02;96919.53;;;12.74;57.92
30339;BME280;795;49.296;11.348;2023-05-17T10:19:30;96953.31;;;13.41;56.37
30339;BME280;795;49.296;11.348;2023-05-17T10:21:58;96934.03;;;12.89;56.56
30339;BME280;795;49.296;11.348;2023-05-17T10:24:49;96932.97;;;13.22;56.90
30339;BME280;795;49.296;11.348;2023-05-17T10:27:20;96921.06;;;13.94;54.96
30339;BME280;795;49.296;11.348;2023-05-17T10:29:49;96931.84;;;15.08;52.62
30339;BME280;795;49.296;11.348;2023-05-17T10:32:20;96938.38;;;14.99;52.16
30339;BME280;795;49.296;11.348;2023-05-17T10:34:50;96884.47;;;15.26;51.57
30339;BME280;795;49.296;11.348;2023-05-17T10:37:39;96935.47;;;16.17;48.86
30339;BME280;795;49.296;11.348;2023-05-17T10:40:08;96936.78;;;15.04;50.92
30339;BME280;795;49.296;11.348;2023-05-17T10:42:51;96875.63;;;13.98;52.63
30339;BME280;795;49.296;11.348;2023-05-17T10:45:24;96897.59;;;14.18;52.98
30339;BME280;795;49.296;11.348;2023-05-17T10:47:54;96935.94;;;14.13;53.51
30339;BME280;795;49.296;11.348;2023-05-17T10:50:25;96875.34;;;13.15;56.37
30339;BME280;795;49.296;11.348;2023-05-17T10:52:53;96937.81;;;13.43;55.42
30339;BME280;795;49.296;11.348;2023-05-17T10:55:41;96916.31;;;13.19;56.62
30339;BME280;795;49.296;11.348;2023-05-17T10:58:18;96894.41;;;13.14;56.77
30339;BME280;795;49.296;11.348;2023-05-17T11:00:51;96894.44;;;13.06;56.83
30339;BME280;795;49.296;11.348;2023-05-17T11:03:28;96924.75;;;13.93;56.13
30339;BME280;795;49.296;11.348;2023-05-17T11:06:17;96919.78;;;13.36;56.43
30339;BME280;795;49.296;11.348;2023-05-17T11:09:14;96926.31;;;13.49;56.86
30339;BME280;795;49.296;11.348;2023-05-17T11:12:10;96926.13;;;14.20;55.63
30339;BME280;795;49.296;11.348;2023-05-17T11:14:54;96905.59;;;14.11;54.94
30339;BME280;795;49.296;11.348;2023-05-17T11:17:45;96912.81;;;14.41;53.84
30339;BME280;795;49.296;11.348;2023-05-17T11:23:11;96863.44;;;13.79;54.50
30339;BME280;795;49.296;11.348;2023-05-17T11:25:41;96923.09;;;13.92;55.08
30339;BME280;795;49.296;11.348;2023-05-17T11:28:20;96921.63;;;13.43;56.65
30339;BME280;795;49.296;11.348;2023-05-17T11:30:48;96856.06;;;12.80;58.17
30339;BME280;795;49.296;11.348;2023-05-17T11:33:19;96901.38;;;12.68;58.60
30339;BME280;795;49.296;11.348;2023-05-17T11:36:13;96837.97;;;12.17;58.88
30339;BME280;795;49.296;11.348;2023-05-17T11:38:41;96892.81;;;12.32;60.49
30339;BME280;795;49.296;11.348;2023-05-17T11:41:21;96828.03;;;11.85;60.52
30339;BME280;795;49.296;11.348;2023-05-17T11:43:53;96883.91;;;12.16;61.90
30339;BME280;795;49.296;11.348;2023-05-17T11:46:23;96923.94;;;12.67;61.78
30339;BME280;795;49.296;11.348;2023-05-17T11:48:52;96897.81;;;12.84;61.31
30339;BME280;795;49.296;11.348;2023-05-17T11:51:20;96891.56;;;12.91;59.86
30339;BME280;795;49.296;11.348;2023-05-17T11:53:53;96879.97;;;12.83;60.74
30339;BME280;795;49.296;11.348;2023-05-17T11:56:23;96923.34;;;13.36;59.02
30339;BME280;795;49.296;11.348;2023-05-17T11:59:08;96863.66;;;12.76;59.13
30339;BME280;795;49.296;11.348;2023-05-17T12:01:48;96915.25;;;13.28;59.13
30339;BME280;795;49.296;11.348;2023-05-17T12:04:26;96879.13;;;12.74;60.11
30339;BME280;795;49.296;11.348;2023-05-17T12:06:54;96854.94;;;12.26;60.12
30339;BME280;795;49.296;11.348;2023-05-17T12:09:22;96916.84;;;12.82;60.30
30339;BME280;795;49.296;11.348;2023-05-17T12:11:50;96869.06;;;12.68;60.08
30339;BME280;795;49.296;11.348;2023-05-17T12:14:17;96864.34;;;12.62;60.08
30339;BME280;795;49.296;11.348;2023-05-17T12:16:53;96911.66;;;12.32;61.33
30339;BME280;795;49.296;11.348;2023-05-17T12:19:23;96871.78;;;12.20;61.80
30339;BME280;795;49.296;11.348;2023-05-17T12:22:09;96916.72;;;12.51;61.88
30339;BME280;795;49.296;11.348;2023-05-17T12:24:42;96916.72;;;12.51;61.78
30339;BME280;795;49.296;11.348;2023-05-17T12:27:10;96833.91;;;12.05;62.67
30339;BME280;795;49.296;11.348;2023-05-17T12:29:38;96885.25;;;12.52;62.69
30339;BME280;795;49.296;11.348;2023-05-17T12:32:09;96926.97;;;12.16;64.35
30339;BME280;795;49.296;11.348;2023-05-17T12:34:36;96874.59;;;11.86;64.61
30339;BME280;795;49.296;11.348;2023-05-17T12:37:06;96915.84;;;12.27;64.77
30339;BME280;795;49.296;11.348;2023-05-17T12:39:36;96897.38;;;12.40;63.88
30339;BME280;795;49.296;11.348;2023-05-17T12:42:04;96896.84;;;12.60;62.96
30339;BME280;795;49.296;11.348;2023-05-17T12:44:32;96941.59;;;12.70;64.47
30339;BME280;795;49.296;11.348;2023-05-17T12:47:01;96924.47;;;12.54;64.62
30339;BME280;795;49.296;11.348;2023-05-17T12:49:28;96865.53;;;12.51;64.39
30339;BME280;795;49.296;11.348;2023-05-17T12:52:02;96928.13;;;12.94;62.81
30339;BME280;795;49.296;11.348;2023-05-17T12:54:32;96856.25;;;12.70;63.08
30339;BME280;795;49.296;11.348;2023-05-17T12:57:09;96938.41;;;12.74;63.87
30339;BME280;795;49.296;11.348;2023-05-17T12:59:51;96892.47;;;12.51;64.60
30339;BME280;795;49.296;11.348;2023-05-17T13:02:19;96818.13;;;11.94;65.41
30339;BME280;795;49.296;11.348;2023-05-17T13:04:47;96876.66;;;12.24;67.56
30339;BME280;795;49.296;11.348;2023-05-17T13:07:22;96879.69;;;12.13;64.30
30339;BME280;795;49.296;11.348;2023-05-17T13:09:50;96932.69;;;12.29;66.43
30339;BME280;795;49.296;11.348;2023-05-17T13:12:22;96933.53;;;12.29;67.70
30339;BME280;795;49.296;11.348;2023-05-17T13:14:52;96952.69;;;12.26;69.30
30339;BME280;795;49.296;11.348;2023-05-17T13:17:34;96956.09;;;12.36;69.37
30339;BME280;795;49.296;11.348;2023-05-17T13:20:02;96883.81;;;11.75;71.35
30339;BME280;795;49.296;11.348;2023-05-17T13:22:31;96915.91;;;11.69;72.10
30339;BME280;795;49.296;11.348;2023-05-17T13:24:58;96879.16;;;11.44;74.14
30339;BME280;795;49.296;11.348;2023-05-17T13:27:27;96920.88;;;11.56;74.25
30339;BME280;795;49.296;11.348;2023-05-17T13:29:53;96934.97;;;11.50;75.65
30339;BME280;795;49.296;11.348;2023-05-17T13:32:20;96927.53;;;11.36;77.37
30339;BME280;795;49.296;11.348;2023-05-17T13:34:48;96936.03;;;11.23;77.12
30339;BME280;795;49.296;11.348;2023-05-17T13:37:15;96963.66;;;11.41;77.43
30339;BME280;795;49.296;11.348;2023-05-17T13:39:42;96892.97;;;10.81;78.75
30339;BME280;795;49.296;11.348;2023-05-17T13:42:11;96912.13;;;10.86;80.23
30339;BME280;795;49.296;11.348;2023-05-17T13:44:39;96909.91;;;11.07;78.63
30339;BME280;795;49.296;11.348;2023-05-17T13:47:06;96934.09;;;11.41;77.58